x

Mount Louis (45138) Wave Buoy

8:00am - Fri 25th Jul 2014 All times are UTC.

  • Sig Wave height 1.0ft
  • Peak Period 4s
  • Wind
    4mph, 7mph gusts
  • Sea Temp 58°f
  • Air Temp 58°f
  • Sea Pressure 1007.4mb

More Historic Weather Station data

Upgrade to MSW Pro to gain access to the past 30 days of data for over 8000 Wavebouys and Weather Stations around the globe.

Join Pro

Comparision Forecast

View Surf forecast
   
Fri 07/25 8:00am 1ft 4s 4 7 mph 1007.4mb 58f 58f
7:00am 1ft 4s 9 11 mph 1007.2mb 57f 58f
6:00am 1ft 4s 9 11 mph 1007.3mb 57f 58f
5:00am 1.3ft 4s 9
mph
1007.6mb 57f 58f
4:00am 1.3ft 4s 9 11 mph 1008mb 56f 58f
3:00am 1.3ft 4s 11 13 mph 1008mb 56f 57f
2:00am 1ft 4s 13
mph
1008mb 56f 57f
1:00am 1.3ft 4s 9 11 mph 1008.1mb 56f 57f
12:00am 1.3ft 3s 11
mph
1007.8mb 56f 57f
Thu 07/24 11:00pm 1.3ft 4s 9 11 mph 1008mb 57f 58f
10:00pm 1.3ft 3s 11 13 mph 1007.8mb 57f 59f
9:00pm 1.3ft 3s 16 18 mph 1008mb 58f 59f
8:00pm 1.3ft 2s 16 18 mph 1008.4mb 58f 58f
7:00pm 1.3ft 3s 16 18 mph 1008.9mb 58f 58f
6:00pm 1.6ft 4s 13 16 mph 1009.3mb 57f 58f
5:00pm 1.6ft 4s 16 18 mph 1009.5mb 57f 57f
4:00pm 1.6ft 4s 13 16 mph 1010mb 56f 56f
3:00pm 2ft 4s 11
mph
1010.3mb 55f 56f
2:00pm 2.5ft 4s 9 11 mph 1010.3mb 60f 57f
1:00pm 2.5ft 4s 13 16 mph 1010.2mb 60f 58f
12:00pm 3.5ft 4s 16 18 mph 1009.8mb 60f 58f
11:00am 3ft 4s 18 20 mph 1009.2mb 60f 58f
10:00am 3.5ft 4s 20 22 mph 1008.5mb 60f 58f
9:00am 3.5ft 4s 20 22 mph 1007.8mb 60f 59f
8:00am 3.5ft 4s 20 25 mph 1007.3mb 60f 60f
7:00am 3ft 4s 20 22 mph 1007.1mb 60f 60f
6:00am 2.5ft 4s 18 20 mph 1006.3mb 60f 61f
4:00am 3.5ft 4s 18 20 mph 1005.2mb 61f 62f
3:00am 3.5ft 4s 18 20 mph 1004.6mb 61f 63f
1:00am 3.5ft 5s 18 20 mph 1003.1mb 62f 65f
12:00am 3.5ft 5s 13 18 mph 1002.3mb 61f 64f
Wed 07/23 11:00pm 3.5ft 5s 20 25 mph 1001.5mb 62f 61f
10:00pm 3.5ft 5s 18 22 mph 1000.5mb 62f 61f
9:00pm 4ft 4s 18 20 mph 999.3mb 61f 62f
8:00pm 3.5ft 4s 25 29 mph 998.3mb 61f 65f
7:00pm 2.5ft 3s 27 34 mph 997.9mb 61f 67f
6:00pm 1.3ft  -  18 22 mph 998.3mb 62f 67f
5:00pm 1.3ft 3s 13 18 mph 998.3mb 62f 66f
4:00pm 1.6ft 4s 7 9 mph 999mb 62f 64f
3:00pm 2ft 4s 7
mph
999.2mb 63f 65f
2:00pm 2ft 5s 7
mph
999.7mb 62f 68f
1:00pm 2.5ft 6s 7
mph
1000.2mb 61f 65f
12:00pm 2.5ft 6s 9
mph
1000.8mb 61f 65f
11:00am 2.5ft 6s 7 9 mph 1001.6mb 60f 63f
10:00am 2.5ft 5s 16 18 mph 1002mb 61f 63f
9:00am 2ft 6s 13 18 mph 1002.8mb 61f 63f
8:00am 2.5ft 5s 11 13 mph 1003.1mb 61f 63f
7:00am 2.5ft 5s 11 13 mph 1003.5mb 61f 62f
6:00am 2.5ft 5s 13 18 mph 1003.9mb 62f 62f
5:00am 2.5ft 5s 13
mph
1004.8mb 61f 63f
4:00am 2.5ft 4s 16 18 mph 1005mb 62f 64f
3:00am 2.5ft 5s 18 20 mph 1005.4mb 62f 65f
2:00am 2.5ft 5s 16 18 mph 1006.3mb 62f 65f
1:00am 2.5ft 5s 16 20 mph 1006.8mb 62f 64f
12:00am 3ft 5s 18 22 mph 1006.9mb 62f 63f
Tue 07/22 11:00pm 3.5ft 5s 18 22 mph 1007.1mb 62f 63f
10:00pm 3ft 5s 18 20 mph 1007.4mb 62f 64f
9:00pm 3.5ft 5s 18 22 mph 1007.5mb 63f 67f
8:00pm 3ft 4s 16 22 mph 1008.4mb 62f 67f
7:00pm 3ft 5s 18 22 mph 1008.8mb 62f 64f
6:00pm 3ft 4s 18 20 mph 1009.4mb 62f 63f
5:00pm 2.5ft 4s 18 20 mph 1010mb 62f 65f
4:00pm 2.5ft 4s 18 20 mph 1010.6mb 62f 65f
3:00pm 2ft 3s 20 22 mph 1011.1mb 62f 65f
2:00pm 2ft 3s 18 20 mph 1012.6mb 62f 65f
1:00pm 2ft 3s 16 18 mph 1013.2mb 61f 63f
12:00pm 1.6ft 3s 18 20 mph 1013.9mb 61f 63f
11:00am 1.3ft 3s 13 16 mph 1013.2mb 62f 63f
10:00am 1ft  -  13 18 mph 1013.2mb 62f 64f
9:00am 0.3ft 2s 11 13 mph 1013.4mb 63f 66f
8:00am 0.3ft 2s 9 11 mph 1013.9mb 63f 64f
7:00am 0.3ft 4s 7 9 mph 1014mb 63f 63f
6:00am 0.3ft 4s 9
mph
1014.6mb 62f 63f
5:00am 0.3ft 4s 7 9 mph 1015mb 63f 65f
4:00am 0.3ft 4s 4 7 mph 1015.3mb 63f 65f
3:00am 0.3ft 7s 4 7 mph 1015.7mb 64f 65f
2:00am 0.3ft 6s 7 9 mph 1016mb 64f 65f
1:00am 0.3ft 3s 4 7 mph 1016.6mb 64f 65f
12:00am 0.3ft 5s 4
mph
1016.5mb 64f 65f
Mon 07/21 11:00pm 0.3ft 3s 4
mph
1016.7mb 64f 67f
10:00pm 0.3ft 4s 4
mph
1017.1mb 64f 66f
9:00pm 0.3ft 7s 4 7 mph 1017.6mb 64f 66f
8:00pm 0.3ft 9s 7 9 mph 1018.6mb 64f 66f
7:00pm 0.3ft 8s 7
mph
1018.9mb 64f 65f
6:00pm 0.3ft 3s 9
mph
1019.5mb 62f 64f
5:00pm 0.3ft 4s 2 4 mph 1019.9mb 64f 69f
4:00pm 0.3ft 4s 2
mph
1020.1mb 60f 67f
3:00pm 0.7ft 6s 2 4 mph 1020.7mb 59f 64f
2:00pm 0.7ft 7s 2 4 mph 1020.9mb 59f 62f
1:00pm 0.3ft 8s 4
mph
1021mb 59f 61f
12:00pm 0.3ft 4s 7
mph
1020.8mb 59f 61f
11:00am 0.3ft 4s 4
mph
1020.6mb 59f 61f
10:00am 0.3ft 5s 4 7 mph 1020.9mb 59f 60f